Terminal Aerodrome Forecast
Issued by NWS Sioux Falls, SD

Home | Current Version | Previous Version | Graphics & Text | Print | Product List | Glossary On
Versions: 1 2 3 4 5 6 7 8 9 10 11 12 13 14 15 16 17 18 19 20 21 22 23 24 25 26
432
FTUS43 KFSD 201120
TAFSUX
TAF
KSUX 201120Z 2012/2112 14007KT P6SM SCT250 WS020/19040KT
     FM201500 16014G22KT P6SM SCT250
     FM201800 17020G29KT P6SM BKN250
     FM202200 17020G32KT P6SM SCT120
     FM210300 18018G28KT P6SM SCT040 BKN100
     FM210600 17016G25KT P6SM OVC040=

USA.gov is the U.S. government's official web portal to all federal, state and local government web resources and services.